sensor_id;sensor_type;location;lat;lon;timestamp;temperature;humidity
12386;DHT22;6257;57.634;18.310;2022-10-03T00:00:24;9.00;99.90
12386;DHT22;6257;57.634;18.310;2022-10-03T00:03:29;9.10;99.90
12386;DHT22;6257;57.634;18.310;2022-10-03T00:06:05;9.20;99.90
12386;DHT22;6257;57.634;18.310;2022-10-03T00:09:04;9.30;99.90
12386;DHT22;6257;57.634;18.310;2022-10-03T00:11:45;9.30;99.90
12386;DHT22;6257;57.634;18.310;2022-10-03T00:14:17;9.30;99.90
12386;DHT22;6257;57.634;18.310;2022-10-03T00:16:54;9.30;99.90
12386;DHT22;6257;57.634;18.310;2022-10-03T00:19:30;9.20;99.90
12386;DHT22;6257;57.634;18.310;2022-10-03T00:22:12;9.30;99.90
12386;DHT22;6257;57.634;18.310;2022-10-03T00:24:52;9.30;99.90
12386;DHT22;6257;57.634;18.310;2022-10-03T00:27:29;9.20;99.90
12386;DHT22;6257;57.634;18.310;2022-10-03T00:30:12;9.20;99.90
12386;DHT22;6257;57.634;18.310;2022-10-03T00:32:58;9.10;99.90
12386;DHT22;6257;57.634;18.310;2022-10-03T00:35:43;9.00;99.90
12386;DHT22;6257;57.634;18.310;2022-10-03T00:38:25;9.00;99.90
12386;DHT22;6257;57.634;18.310;2022-10-03T00:50:22;9.10;99.90
12386;DHT22;6257;57.634;18.310;2022-10-03T00:53:08;9.10;99.90
12386;DHT22;6257;57.634;18.310;2022-10-03T00:55:48;9.20;99.90
12386;DHT22;6257;57.634;18.310;2022-10-03T00:58:51;9.20;99.90
12386;DHT22;6257;57.634;18.310;2022-10-03T01:01:22;9.20;99.90
12386;DHT22;6257;57.634;18.310;2022-10-03T01:04:01;9.20;99.90
12386;DHT22;6257;57.634;18.310;2022-10-03T01:06:41;9.20;99.90
12386;DHT22;6257;57.634;18.310;2022-10-03T01:09:32;9.20;99.90
12386;DHT22;6257;57.634;18.310;2022-10-03T01:12:24;9.20;99.90
12386;DHT22;6257;57.634;18.310;2022-10-03T01:15:12;9.10;99.90
12386;DHT22;6257;57.634;18.310;2022-10-03T01:17:52;9.10;99.90
12386;DHT22;6257;57.634;18.310;2022-10-03T01:20:29;9.10;99.90
12386;DHT22;6257;57.634;18.310;2022-10-03T01:23:36;9.10;99.90
12386;DHT22;6257;57.634;18.310;2022-10-03T01:26:18;9.10;99.90
12386;DHT22;6257;57.634;18.310;2022-10-03T01:28:52;9.20;99.90
12386;DHT22;6257;57.634;18.310;2022-10-03T01:31:43;9.20;99.90
12386;DHT22;6257;57.634;18.310;2022-10-03T01:34:21;9.20;99.90
12386;DHT22;6257;57.634;18.310;2022-10-03T01:36:59;9.10;99.90
12386;DHT22;6257;57.634;18.310;2022-10-03T01:39:36;9.10;99.90
12386;DHT22;6257;57.634;18.310;2022-10-03T01:42:10;9.00;99.90
12386;DHT22;6257;57.634;18.310;2022-10-03T01:44:56;9.00;99.90
12386;DHT22;6257;57.634;18.310;2022-10-03T01:47:30;8.90;99.90
12386;DHT22;6257;57.634;18.310;2022-10-03T01:50:05;8.80;99.90
12386;DHT22;6257;57.634;18.310;2022-10-03T01:52:38;8.70;99.90
12386;DHT22;6257;57.634;18.310;2022-10-03T01:55:13;8.60;99.90
12386;DHT22;6257;57.634;18.310;2022-10-03T01:57:52;8.50;99.90
12386;DHT22;6257;57.634;18.310;2022-10-03T02:00:24;8.30;99.90
12386;DHT22;6257;57.634;18.310;2022-10-03T02:02:54;8.20;99.90
12386;DHT22;6257;57.634;18.310;2022-10-03T02:05:35;8.10;99.90
12386;DHT22;6257;57.634;18.310;2022-10-03T02:08:09;8.00;99.90
12386;DHT22;6257;57.634;18.310;2022-10-03T02:10:47;7.90;99.90
12386;DHT22;6257;57.634;18.310;2022-10-03T02:13:22;7.90;99.90
12386;DHT22;6257;57.634;18.310;2022-10-03T02:16:00;7.80;99.90
12386;DHT22;6257;57.634;18.310;2022-10-03T02:18:36;7.80;99.90
12386;DHT22;6257;57.634;18.310;2022-10-03T02:21:10;7.90;99.90
12386;DHT22;6257;57.634;18.310;2022-10-03T02:23:42;8.00;99.90
12386;DHT22;6257;57.634;18.310;2022-10-03T02:26:32;7.90;99.90
12386;DHT22;6257;57.634;18.310;2022-10-03T02:32:14;7.90;99.90
12386;DHT22;6257;57.634;18.310;2022-10-03T02:35:12;8.00;99.90
12386;DHT22;6257;57.634;18.310;2022-10-03T02:38:21;7.90;99.90
12386;DHT22;6257;57.634;18.310;2022-10-03T02:41:28;7.80;99.90
12386;DHT22;6257;57.634;18.310;2022-10-03T02:44:46;7.80;99.90
12386;DHT22;6257;57.634;18.310;2022-10-03T02:47:44;7.80;99.90
12386;DHT22;6257;57.634;18.310;2022-10-03T02:50:37;7.80;99.90
12386;DHT22;6257;57.634;18.310;2022-10-03T03:09:23;7.40;99.90
12386;DHT22;6257;57.634;18.310;2022-10-03T03:12:36;7.30;99.90
12386;DHT22;6257;57.634;18.310;2022-10-03T03:15:41;7.30;99.90
12386;DHT22;6257;57.634;18.310;2022-10-03T03:18:18;7.20;99.90
12386;DHT22;6257;57.634;18.310;2022-10-03T03:20:55;7.20;99.90
12386;DHT22;6257;57.634;18.310;2022-10-03T03:29:44;7.20;99.90
12386;DHT22;6257;57.634;18.310;2022-10-03T03:32:22;7.10;99.90
12386;DHT22;6257;57.634;18.310;2022-10-03T03:35:01;7.10;99.90
12386;DHT22;6257;57.634;18.310;2022-10-03T03:37:35;7.10;99.90
12386;DHT22;6257;57.634;18.310;2022-10-03T03:40:16;7.10;99.90
12386;DHT22;6257;57.634;18.310;2022-10-03T03:46:06;7.10;99.90
12386;DHT22;6257;57.634;18.310;2022-10-03T03:48:47;7.10;99.90
12386;DHT22;6257;57.634;18.310;2022-10-03T03:51:29;7.10;99.90
12386;DHT22;6257;57.634;18.310;2022-10-03T03:54:28;7.10;99.90
12386;DHT22;6257;57.634;18.310;2022-10-03T03:57:19;7.20;99.90
12386;DHT22;6257;57.634;18.310;2022-10-03T04:00:06;7.20;99.90
12386;DHT22;6257;57.634;18.310;2022-10-03T04:02:54;7.30;99.90
12386;DHT22;6257;57.634;18.310;2022-10-03T04:05:45;7.30;99.90
12386;DHT22;6257;57.634;18.310;2022-10-03T04:08:28;7.40;99.90
12386;DHT22;6257;57.634;18.310;2022-10-03T04:11:11;7.40;99.90
12386;DHT22;6257;57.634;18.310;2022-10-03T04:13:53;7.50;99.90
12386;DHT22;6257;57.634;18.310;2022-10-03T04:16:35;7.50;99.90
12386;DHT22;6257;57.634;18.310;2022-10-03T04:19:26;7.40;99.90
12386;DHT22;6257;57.634;18.310;2022-10-03T04:22:09;7.40;99.90
12386;DHT22;6257;57.634;18.310;2022-10-03T04:28:00;7.50;99.90
12386;DHT22;6257;57.634;18.310;2022-10-03T04:30:37;7.50;99.90
12386;DHT22;6257;57.634;18.310;2022-10-03T04:33:21;7.50;99.90
12386;DHT22;6257;57.634;18.310;2022-10-03T04:36:14;7.50;99.90
12386;DHT22;6257;57.634;18.310;2022-10-03T04:38:49;7.50;99.90
12386;DHT22;6257;57.634;18.310;2022-10-03T04:41:25;7.50;99.90
12386;DHT22;6257;57.634;18.310;2022-10-03T04:44:00;7.50;99.90
12386;DHT22;6257;57.634;18.310;2022-10-03T04:46:41;7.40;99.90
12386;DHT22;6257;57.634;18.310;2022-10-03T04:49:15;7.40;99.90
12386;DHT22;6257;57.634;18.310;2022-10-03T04:51:51;7.40;99.90
12386;DHT22;6257;57.634;18.310;2022-10-03T04:54:26;7.40;99.90
12386;DHT22;6257;57.634;18.310;2022-10-03T04:57:00;7.30;99.90
12386;DHT22;6257;57.634;18.310;2022-10-03T04:59:38;7.30;99.90
12386;DHT22;6257;57.634;18.310;2022-10-03T05:02:15;7.20;99.90
12386;DHT22;6257;57.634;18.310;2022-10-03T05:05:07;7.20;99.90
12386;DHT22;6257;57.634;18.310;2022-10-03T05:07:43;7.20;99.90
12386;DHT22;6257;57.634;18.310;2022-10-03T05:10:25;7.10;99.90
12386;DHT22;6257;57.634;18.310;2022-10-03T05:13:01;7.10;99.90
12386;DHT22;6257;57.634;18.310;2022-10-03T05:15:40;7.10;99.90
12386;DHT22;6257;57.634;18.310;2022-10-03T05:18:16;7.10;99.90
12386;DHT22;6257;57.634;18.310;2022-10-03T05:20:48;7.10;99.90
12386;DHT22;6257;57.634;18.310;2022-10-03T05:23:26;6.50;99.90
12386;DHT22;6257;57.634;18.310;2022-10-03T05:26:03;7.10;99.90
12386;DHT22;6257;57.634;18.310;2022-10-03T05:28:41;7.10;99.90
12386;DHT22;6257;57.634;18.310;2022-10-03T05:31:24;7.10;99.90
12386;DHT22;6257;57.634;18.310;2022-10-03T05:33:58;7.20;99.90
12386;DHT22;6257;57.634;18.310;2022-10-03T05:36:34;7.20;99.90
12386;DHT22;6257;57.634;18.310;2022-10-03T05:39:34;7.20;99.90
12386;DHT22;6257;57.634;18.310;2022-10-03T05:42:15;7.20;99.90
12386;DHT22;6257;57.634;18.310;2022-10-03T05:44:57;7.30;99.90
12386;DHT22;6257;57.634;18.310;2022-10-03T05:47:29;7.30;99.90
12386;DHT22;6257;57.634;18.310;2022-10-03T05:53:45;7.40;99.90
12386;DHT22;6257;57.634;18.310;2022-10-03T05:56:29;7.40;99.90
12386;DHT22;6257;57.634;18.310;2022-10-03T05:59:27;7.50;99.90
12386;DHT22;6257;57.634;18.310;2022-10-03T06:05:15;7.70;99.90
12386;DHT22;6257;57.634;18.310;2022-10-03T06:08:00;7.90;99.90
12386;DHT22;6257;57.634;18.310;2022-10-03T06:10:48;8.10;99.90
12386;DHT22;6257;57.634;18.310;2022-10-03T06:13:23;8.40;99.90
12386;DHT22;6257;57.634;18.310;2022-10-03T06:15:59;8.60;99.90
12386;DHT22;6257;57.634;18.310;2022-10-03T06:19:00;8.90;99.90
12386;DHT22;6257;57.634;18.310;2022-10-03T06:28:18;9.20;99.90
12386;DHT22;6257;57.634;18.310;2022-10-03T06:31:26;9.40;99.90
12386;DHT22;6257;57.634;18.310;2022-10-03T06:34:39;9.40;99.90
12386;DHT22;6257;57.634;18.310;2022-10-03T06:43:51;9.70;99.90
12386;DHT22;6257;57.634;18.310;2022-10-03T06:46:47;9.60;99.90
12386;DHT22;6257;57.634;18.310;2022-10-03T06:56:01;9.70;99.90
12386;DHT22;6257;57.634;18.310;2022-10-03T06:59:00;9.70;99.90
12386;DHT22;6257;57.634;18.310;2022-10-03T07:01:46;9.70;99.90
12386;DHT22;6257;57.634;18.310;2022-10-03T07:07:43;9.80;99.90
12386;DHT22;6257;57.634;18.310;2022-10-03T07:10:34;9.90;99.90
12386;DHT22;6257;57.634;18.310;2022-10-03T07:13:34;9.90;99.90
12386;DHT22;6257;57.634;18.310;2022-10-03T07:16:23;10.00;99.90
12386;DHT22;6257;57.634;18.310;2022-10-03T07:26:09;10.20;99.90
12386;DHT22;6257;57.634;18.310;2022-10-03T07:29:11;10.30;99.90
12386;DHT22;6257;57.634;18.310;2022-10-03T07:31:59;10.40;99.90
12386;DHT22;6257;57.634;18.310;2022-10-03T07:37:42;10.70;99.90
12386;DHT22;6257;57.634;18.310;2022-10-03T07:41:12;10.90;99.90
12386;DHT22;6257;57.634;18.310;2022-10-03T07:43:57;11.20;99.90
12386;DHT22;6257;57.634;18.310;2022-10-03T07:46:49;11.40;99.90
12386;DHT22;6257;57.634;18.310;2022-10-03T07:49:48;11.60;99.90
12386;DHT22;6257;57.634;18.310;2022-10-03T07:55:26;12.30;99.90
12386;DHT22;6257;57.634;18.310;2022-10-03T07:58:23;11.30;99.90
12386;DHT22;6257;57.634;18.310;2022-10-03T08:01:12;12.90;99.90
12386;DHT22;6257;57.634;18.310;2022-10-03T08:07:01;13.80;99.90
12386;DHT22;6257;57.634;18.310;2022-10-03T08:09:56;14.20;99.90
12386;DHT22;6257;57.634;18.310;2022-10-03T08:12:54;14.60;99.90
12386;DHT22;6257;57.634;18.310;2022-10-03T08:15:32;15.10;99.90
12386;DHT22;6257;57.634;18.310;2022-10-03T08:18:22;15.40;99.90
12386;DHT22;6257;57.634;18.310;2022-10-03T08:20:53;15.60;99.90
12386;DHT22;6257;57.634;18.310;2022-10-03T08:26:43;14.80;99.90
12386;DHT22;6257;57.634;18.310;2022-10-03T08:32:41;13.70;99.90
12386;DHT22;6257;57.634;18.310;2022-10-03T08:38:54;13.00;99.90
12386;DHT22;6257;57.634;18.310;2022-10-03T08:42:10;12.80;99.90
12386;DHT22;6257;57.634;18.310;2022-10-03T08:53:56;13.00;99.90
12386;DHT22;6257;57.634;18.310;2022-10-03T08:56:44;12.90;99.90
12386;DHT22;6257;57.634;18.310;2022-10-03T08:59:46;13.00;99.90
12386;DHT22;6257;57.634;18.310;2022-10-03T09:02:59;12.90;99.90
12386;DHT22;6257;57.634;18.310;2022-10-03T09:05:54;12.80;99.90
12386;DHT22;6257;57.634;18.310;2022-10-03T09:11:51;12.70;99.90
12386;DHT22;6257;57.634;18.310;2022-10-03T09:14:46;12.60;99.90
12386;DHT22;6257;57.634;18.310;2022-10-03T09:23:46;13.20;99.90
12386;DHT22;6257;57.634;18.310;2022-10-03T09:26:53;13.30;99.90
12386;DHT22;6257;57.634;18.310;2022-10-03T09:29:35;13.30;99.90
12386;DHT22;6257;57.634;18.310;2022-10-03T09:35:47;13.00;99.90
12386;DHT22;6257;57.634;18.310;2022-10-03T09:38:47;12.90;99.90
12386;DHT22;6257;57.634;18.310;2022-10-03T09:44:38;13.00;99.90
12386;DHT22;6257;57.634;18.310;2022-10-03T09:47:27;13.10;99.90
12386;DHT22;6257;57.634;18.310;2022-10-03T09:53:17;13.10;99.90
12386;DHT22;6257;57.634;18.310;2022-10-03T09:59:13;13.20;99.90
12386;DHT22;6257;57.634;18.310;2022-10-03T10:01:49;13.10;99.90
12386;DHT22;6257;57.634;18.310;2022-10-03T10:04:39;13.10;99.90
12386;DHT22;6257;57.634;18.310;2022-10-03T10:07:35;13.10;99.90
12386;DHT22;6257;57.634;18.310;2022-10-03T10:13:22;13.10;99.90
12386;DHT22;6257;57.634;18.310;2022-10-03T10:16:12;13.10;99.90
12386;DHT22;6257;57.634;18.310;2022-10-03T10:19:21;13.10;99.90
12386;DHT22;6257;57.634;18.310;2022-10-03T10:25:24;13.10;99.90
12386;DHT22;6257;57.634;18.310;2022-10-03T10:28:29;13.10;99.90
12386;DHT22;6257;57.634;18.310;2022-10-03T10:47:11;13.20;99.90
12386;DHT22;6257;57.634;18.310;2022-10-03T10:50:23;13.30;99.90
12386;DHT22;6257;57.634;18.310;2022-10-03T11:06:21;13.20;99.90
12386;DHT22;6257;57.634;18.310;2022-10-03T11:15:54;13.20;99.90
12386;DHT22;6257;57.634;18.310;2022-10-03T11:22:14;13.10;99.90
12386;DHT22;6257;57.634;18.310;2022-10-03T11:25:30;13.10;99.90
12386;DHT22;6257;57.634;18.310;2022-10-03T11:28:33;13.20;99.90
12386;DHT22;6257;57.634;18.310;2022-10-03T11:37:34;13.60;99.90
12386;DHT22;6257;57.634;18.310;2022-10-03T11:40:14;13.30;99.90
12386;DHT22;6257;57.634;18.310;2022-10-03T11:42:54;13.20;99.90
12386;DHT22;6257;57.634;18.310;2022-10-03T11:45:27;13.10;99.90
12386;DHT22;6257;57.634;18.310;2022-10-03T11:48:01;13.00;99.90
12386;DHT22;6257;57.634;18.310;2022-10-03T11:50:52;13.00;99.90
12386;DHT22;6257;57.634;18.310;2022-10-03T11:53:36;12.90;99.90
12386;DHT22;6257;57.634;18.310;2022-10-03T11:56:17;13.00;99.90
12386;DHT22;6257;57.634;18.310;2022-10-03T11:59:07;13.10;99.90
12386;DHT22;6257;57.634;18.310;2022-10-03T12:01:49;13.20;99.90
12386;DHT22;6257;57.634;18.310;2022-10-03T12:04:27;13.20;99.90
12386;DHT22;6257;57.634;18.310;2022-10-03T12:06:59;13.10;99.90
12386;DHT22;6257;57.634;18.310;2022-10-03T12:10:00;13.10;99.90
12386;DHT22;6257;57.634;18.310;2022-10-03T12:12:35;13.10;99.90
12386;DHT22;6257;57.634;18.310;2022-10-03T12:15:18;13.10;99.90
12386;DHT22;6257;57.634;18.310;2022-10-03T12:17:54;13.10;99.90
12386;DHT22;6257;57.634;18.310;2022-10-03T12:20:33;13.00;99.90
12386;DHT22;6257;57.634;18.310;2022-10-03T12:23:07;13.00;99.90
12386;DHT22;6257;57.634;18.310;2022-10-03T12:25:43;13.00;99.90
12386;DHT22;6257;57.634;18.310;2022-10-03T12:28:17;13.00;99.90
12386;DHT22;6257;57.634;18.310;2022-10-03T12:30:50;13.10;99.90
12386;DHT22;6257;57.634;18.310;2022-10-03T12:33:34;13.00;99.90
12386;DHT22;6257;57.634;18.310;2022-10-03T12:36:09;13.00;99.90
12386;DHT22;6257;57.634;18.310;2022-10-03T12:41:55;13.00;99.90
12386;DHT22;6257;57.634;18.310;2022-10-03T12:44:32;13.10;99.90
12386;DHT22;6257;57.634;18.310;2022-10-03T12:47:19;13.20;99.90
12386;DHT22;6257;57.634;18.310;2022-10-03T12:49:54;13.10;99.90
12386;DHT22;6257;57.634;18.310;2022-10-03T12:52:26;13.10;99.90
12386;DHT22;6257;57.634;18.310;2022-10-03T12:55:05;13.00;99.90
12386;DHT22;6257;57.634;18.310;2022-10-03T12:57:53;13.00;99.90
12386;DHT22;6257;57.634;18.310;2022-10-03T13:00:26;13.00;99.90
12386;DHT22;6257;57.634;18.310;2022-10-03T13:03:12;13.00;99.90
12386;DHT22;6257;57.634;18.310;2022-10-03T13:06:03;12.90;99.90
12386;DHT22;6257;57.634;18.310;2022-10-03T13:08:42;12.90;99.90
12386;DHT22;6257;57.634;18.310;2022-10-03T13:11:26;13.00;99.90
12386;DHT22;6257;57.634;18.310;2022-10-03T13:14:05;13.00;99.90
12386;DHT22;6257;57.634;18.310;2022-10-03T13:16:38;12.90;99.90
12386;DHT22;6257;57.634;18.310;2022-10-03T13:19:11;12.80;99.90
12386;DHT22;6257;57.634;18.310;2022-10-03T13:21:55;12.70;99.90
12386;DHT22;6257;57.634;18.310;2022-10-03T13:24:36;12.70;99.90
12386;DHT22;6257;57.634;18.310;2022-10-03T13:27:19;12.80;99.90
12386;DHT22;6257;57.634;18.310;2022-10-03T13:29:54;12.80;99.90
12386;DHT22;6257;57.634;18.310;2022-10-03T13:32:31;12.70;99.90
12386;DHT22;6257;57.634;18.310;2022-10-03T13:35:13;12.70;99.90
12386;DHT22;6257;57.634;18.310;2022-10-03T13:38:21;12.70;99.90
12386;DHT22;6257;57.634;18.310;2022-10-03T13:40:57;12.70;99.90
12386;DHT22;6257;57.634;18.310;2022-10-03T13:43:31;12.60;99.90
12386;DHT22;6257;57.634;18.310;2022-10-03T13:46:09;12.60;99.90
12386;DHT22;6257;57.634;18.310;2022-10-03T13:48:38;12.60;99.90
12386;DHT22;6257;57.634;18.310;2022-10-03T13:51:18;12.60;99.90
12386;DHT22;6257;57.634;18.310;2022-10-03T13:53:56;12.60;99.90
12386;DHT22;6257;57.634;18.310;2022-10-03T13:56:44;12.70;99.90
12386;DHT22;6257;57.634;18.310;2022-10-03T14:02:35;12.60;99.90
12386;DHT22;6257;57.634;18.310;2022-10-03T14:05:30;12.50;99.90
12386;DHT22;6257;57.634;18.310;2022-10-03T14:08:09;12.40;99.90
12386;DHT22;6257;57.634;18.310;2022-10-03T14:11:02;12.30;99.90
12386;DHT22;6257;57.634;18.310;2022-10-03T14:13:45;12.20;99.90
12386;DHT22;6257;57.634;18.310;2022-10-03T14:16:18;12.20;99.90
12386;DHT22;6257;57.634;18.310;2022-10-03T14:18:56;12.20;99.90
12386;DHT22;6257;57.634;18.310;2022-10-03T14:24:41;12.20;99.90
12386;DHT22;6257;57.634;18.310;2022-10-03T14:27:37;12.10;99.90
12386;DHT22;6257;57.634;18.310;2022-10-03T14:30:11;11.90;99.90
12386;DHT22;6257;57.634;18.310;2022-10-03T14:32:53;11.90;99.90
12386;DHT22;6257;57.634;18.310;2022-10-03T14:35:36;11.90;99.90
12386;DHT22;6257;57.634;18.310;2022-10-03T14:38:49;12.00;99.90
12386;DHT22;6257;57.634;18.310;2022-10-03T14:41:34;12.00;99.90
12386;DHT22;6257;57.634;18.310;2022-10-03T14:44:07;12.00;99.90
12386;DHT22;6257;57.634;18.310;2022-10-03T14:46:42;12.00;99.90
12386;DHT22;6257;57.634;18.310;2022-10-03T14:49:18;11.90;99.90
12386;DHT22;6257;57.634;18.310;2022-10-03T14:51:50;12.00;99.90
12386;DHT22;6257;57.634;18.310;2022-10-03T14:54:22;11.90;99.90
12386;DHT22;6257;57.634;18.310;2022-10-03T14:56:50;11.90;99.90
12386;DHT22;6257;57.634;18.310;2022-10-03T14:59:21;12.00;99.90
12386;DHT22;6257;57.634;18.310;2022-10-03T15:01:51;12.00;99.90
12386;DHT22;6257;57.634;18.310;2022-10-03T15:04:26;11.90;99.90
12386;DHT22;6257;57.634;18.310;2022-10-03T15:06:56;11.90;99.90
12386;DHT22;6257;57.634;18.310;2022-10-03T15:09:30;11.90;99.90
12386;DHT22;6257;57.634;18.310;2022-10-03T15:12:03;11.80;99.90
12386;DHT22;6257;57.634;18.310;2022-10-03T15:14:34;11.90;99.90
12386;DHT22;6257;57.634;18.310;2022-10-03T15:17:04;11.80;99.90
12386;DHT22;6257;57.634;18.310;2022-10-03T15:19:36;11.80;99.90
12386;DHT22;6257;57.634;18.310;2022-10-03T15:22:27;11.80;99.90
12386;DHT22;6257;57.634;18.310;2022-10-03T15:25:00;11.80;99.90
12386;DHT22;6257;57.634;18.310;2022-10-03T15:27:29;11.80;99.90
12386;DHT22;6257;57.634;18.310;2022-10-03T15:29:58;11.80;99.90
12386;DHT22;6257;57.634;18.310;2022-10-03T15:32:29;11.80;99.90
12386;DHT22;6257;57.634;18.310;2022-10-03T15:35:00;11.80;99.90
12386;DHT22;6257;57.634;18.310;2022-10-03T15:37:31;11.80;99.90
12386;DHT22;6257;57.634;18.310;2022-10-03T15:40:06;11.70;99.90
12386;DHT22;6257;57.634;18.310;2022-10-03T15:42:48;11.70;99.90
12386;DHT22;6257;57.634;18.310;2022-10-03T15:45:19;11.70;99.90
12386;DHT22;6257;57.634;18.310;2022-10-03T15:47:48;11.70;99.90
12386;DHT22;6257;57.634;18.310;2022-10-03T15:50:18;11.70;99.90
12386;DHT22;6257;57.634;18.310;2022-10-03T15:52:51;11.70;99.90
12386;DHT22;6257;57.634;18.310;2022-10-03T15:55:23;11.70;99.90
12386;DHT22;6257;57.634;18.310;2022-10-03T15:57:53;11.70;99.90
12386;DHT22;6257;57.634;18.310;2022-10-03T16:00:27;11.70;99.90
12386;DHT22;6257;57.634;18.310;2022-10-03T16:03:03;11.70;99.90
12386;DHT22;6257;57.634;18.310;2022-10-03T16:05:35;11.70;99.90
12386;DHT22;6257;57.634;18.310;2022-10-03T16:08:06;11.70;99.90
12386;DHT22;6257;57.634;18.310;2022-10-03T16:10:38;11.70;99.90
12386;DHT22;6257;57.634;18.310;2022-10-03T16:13:20;11.70;99.90
12386;DHT22;6257;57.634;18.310;2022-10-03T16:16:11;11.70;99.90
12386;DHT22;6257;57.634;18.310;2022-10-03T16:21:41;11.60;99.90
12386;DHT22;6257;57.634;18.310;2022-10-03T16:24:26;11.60;99.90
12386;DHT22;6257;57.634;18.310;2022-10-03T16:27:02;11.60;99.90
12386;DHT22;6257;57.634;18.310;2022-10-03T16:29:34;11.50;99.90
12386;DHT22;6257;57.634;18.310;2022-10-03T16:32:04;11.50;99.90
12386;DHT22;6257;57.634;18.310;2022-10-03T16:34:34;11.60;99.90
12386;DHT22;6257;57.634;18.310;2022-10-03T16:37:03;11.60;99.90
12386;DHT22;6257;57.634;18.310;2022-10-03T16:39:42;13.00;99.90
12386;DHT22;6257;57.634;18.310;2022-10-03T16:42:20;11.60;99.90
12386;DHT22;6257;57.634;18.310;2022-10-03T16:44:51;11.70;99.90
12386;DHT22;6257;57.634;18.310;2022-10-03T16:47:28;11.70;99.90
12386;DHT22;6257;57.634;18.310;2022-10-03T16:49:57;11.80;99.90
12386;DHT22;6257;57.634;18.310;2022-10-03T16:52:45;11.80;99.90
12386;DHT22;6257;57.634;18.310;2022-10-03T16:55:17;11.80;99.90
12386;DHT22;6257;57.634;18.310;2022-10-03T16:57:51;11.90;99.90
12386;DHT22;6257;57.634;18.310;2022-10-03T17:00:22;11.90;99.90
12386;DHT22;6257;57.634;18.310;2022-10-03T17:02:49;11.90;99.90
12386;DHT22;6257;57.634;18.310;2022-10-03T17:05:18;11.90;99.90
12386;DHT22;6257;57.634;18.310;2022-10-03T17:07:48;11.90;99.90
12386;DHT22;6257;57.634;18.310;2022-10-03T17:10:32;11.90;99.90
12386;DHT22;6257;57.634;18.310;2022-10-03T17:13:17;11.90;99.90
12386;DHT22;6257;57.634;18.310;2022-10-03T17:15:50;11.90;99.90
12386;DHT22;6257;57.634;18.310;2022-10-03T17:18:22;11.90;99.90
12386;DHT22;6257;57.634;18.310;2022-10-03T17:20:53;11.90;99.90
12386;DHT22;6257;57.634;18.310;2022-10-03T17:23:30;11.90;99.90
12386;DHT22;6257;57.634;18.310;2022-10-03T17:26:08;11.90;99.90
12386;DHT22;6257;57.634;18.310;2022-10-03T17:28:43;11.90;99.90
12386;DHT22;6257;57.634;18.310;2022-10-03T17:31:27;12.00;99.90
12386;DHT22;6257;57.634;18.310;2022-10-03T17:34:03;12.00;99.90
12386;DHT22;6257;57.634;18.310;2022-10-03T17:37:01;12.00;99.90
12386;DHT22;6257;57.634;18.310;2022-10-03T17:39:38;11.90;99.90
12386;DHT22;6257;57.634;18.310;2022-10-03T17:42:23;11.90;99.90
12386;DHT22;6257;57.634;18.310;2022-10-03T17:45:00;11.80;99.90
12386;DHT22;6257;57.634;18.310;2022-10-03T17:47:35;11.80;99.90
12386;DHT22;6257;57.634;18.310;2022-10-03T17:50:13;11.70;99.90
12386;DHT22;6257;57.634;18.310;2022-10-03T17:52:44;11.80;99.90
12386;DHT22;6257;57.634;18.310;2022-10-03T17:55:15;11.80;99.90
12386;DHT22;6257;57.634;18.310;2022-10-03T17:57:48;11.80;99.90
12386;DHT22;6257;57.634;18.310;2022-10-03T18:00:21;11.80;99.90
12386;DHT22;6257;57.634;18.310;2022-10-03T18:02:56;11.80;99.90
12386;DHT22;6257;57.634;18.310;2022-10-03T18:05:28;11.80;99.90
12386;DHT22;6257;57.634;18.310;2022-10-03T18:08:01;11.90;99.90
12386;DHT22;6257;57.634;18.310;2022-10-03T18:10:33;11.90;99.90
12386;DHT22;6257;57.634;18.310;2022-10-03T18:13:07;11.90;99.90
12386;DHT22;6257;57.634;18.310;2022-10-03T18:19:02;12.00;99.90
12386;DHT22;6257;57.634;18.310;2022-10-03T18:21:45;12.00;99.90
12386;DHT22;6257;57.634;18.310;2022-10-03T18:24:39;12.00;99.90
12386;DHT22;6257;57.634;18.310;2022-10-03T18:30:15;12.10;99.90
12386;DHT22;6257;57.634;18.310;2022-10-03T18:32:44;12.00;99.90
12386;DHT22;6257;57.634;18.310;2022-10-03T18:35:15;12.00;99.90
12386;DHT22;6257;57.634;18.310;2022-10-03T18:38:10;12.00;99.90
12386;DHT22;6257;57.634;18.310;2022-10-03T18:40:41;12.00;99.90
12386;DHT22;6257;57.634;18.310;2022-10-03T18:43:32;11.90;99.90
12386;DHT22;6257;57.634;18.310;2022-10-03T18:46:15;11.90;99.90
12386;DHT22;6257;57.634;18.310;2022-10-03T18:48:56;11.90;99.90
12386;DHT22;6257;57.634;18.310;2022-10-03T18:51:30;11.90;99.90
12386;DHT22;6257;57.634;18.310;2022-10-03T18:54:03;11.90;99.90
12386;DHT22;6257;57.634;18.310;2022-10-03T18:56:32;11.90;99.90
12386;DHT22;6257;57.634;18.310;2022-10-03T18:59:14;11.90;99.90
12386;DHT22;6257;57.634;18.310;2022-10-03T19:01:55;11.90;99.90
12386;DHT22;6257;57.634;18.310;2022-10-03T19:04:36;11.90;99.90
12386;DHT22;6257;57.634;18.310;2022-10-03T19:07:15;11.90;99.90
12386;DHT22;6257;57.634;18.310;2022-10-03T19:13:00;11.90;99.90
12386;DHT22;6257;57.634;18.310;2022-10-03T19:15:38;12.00;99.90
12386;DHT22;6257;57.634;18.310;2022-10-03T19:18:18;12.10;99.90
12386;DHT22;6257;57.634;18.310;2022-10-03T19:20:51;12.00;99.90
12386;DHT22;6257;57.634;18.310;2022-10-03T19:23:23;12.10;99.90
12386;DHT22;6257;57.634;18.310;2022-10-03T19:25:57;12.10;99.90
12386;DHT22;6257;57.634;18.310;2022-10-03T19:28:29;12.10;99.90
12386;DHT22;6257;57.634;18.310;2022-10-03T19:31:01;12.10;99.90
12386;DHT22;6257;57.634;18.310;2022-10-03T19:33:40;12.10;99.90
12386;DHT22;6257;57.634;18.310;2022-10-03T19:36:13;12.10;99.90
12386;DHT22;6257;57.634;18.310;2022-10-03T19:38:43;12.10;99.90
12386;DHT22;6257;57.634;18.310;2022-10-03T19:41:21;12.10;99.90
12386;DHT22;6257;57.634;18.310;2022-10-03T19:43:54;12.10;99.90
12386;DHT22;6257;57.634;18.310;2022-10-03T19:46:57;12.10;99.90
12386;DHT22;6257;57.634;18.310;2022-10-03T19:49:52;12.00;99.90
12386;DHT22;6257;57.634;18.310;2022-10-03T19:52:27;12.00;99.90
12386;DHT22;6257;57.634;18.310;2022-10-03T19:55:01;12.10;99.90
12386;DHT22;6257;57.634;18.310;2022-10-03T19:57:37;12.00;99.90
12386;DHT22;6257;57.634;18.310;2022-10-03T20:00:17;12.00;99.90
12386;DHT22;6257;57.634;18.310;2022-10-03T20:02:54;12.00;99.90
12386;DHT22;6257;57.634;18.310;2022-10-03T20:05:35;12.00;99.90
12386;DHT22;6257;57.634;18.310;2022-10-03T20:08:15;11.90;99.90
12386;DHT22;6257;57.634;18.310;2022-10-03T20:13:43;11.90;99.90
12386;DHT22;6257;57.634;18.310;2022-10-03T20:16:14;11.90;99.90
12386;DHT22;6257;57.634;18.310;2022-10-03T20:18:45;11.90;99.90
12386;DHT22;6257;57.634;18.310;2022-10-03T20:21:17;11.80;99.90
12386;DHT22;6257;57.634;18.310;2022-10-03T20:23:45;11.80;99.90
12386;DHT22;6257;57.634;18.310;2022-10-03T20:26:20;11.80;99.90
12386;DHT22;6257;57.634;18.310;2022-10-03T20:29:16;11.90;99.90